createdAt,value
2018-01-10T00:01:35.822Z,5.00
2018-01-10T00:04:03.519Z,3.77
2018-01-10T00:06:31.297Z,4.30
2018-01-10T00:08:59.216Z,4.73
2018-01-10T00:11:26.950Z,4.47
2018-01-10T00:13:54.632Z,6.40
2018-01-10T00:16:22.359Z,5.07
2018-01-10T00:18:50.089Z,5.60
2018-01-10T00:21:18.849Z,7.77
2018-01-10T00:23:46.548Z,8.90
2018-01-10T00:26:14.537Z,7.47
2018-01-10T00:28:42.201Z,5.03
2018-01-10T00:31:09.863Z,4.03
2018-01-10T00:33:37.612Z,4.30
2018-01-10T00:36:05.298Z,6.00
2018-01-10T00:38:33.034Z,6.20
2018-01-10T00:41:00.769Z,5.40
2018-01-10T00:43:28.492Z,6.30
2018-01-10T00:45:56.225Z,4.80
2018-01-10T00:48:23.901Z,4.73
2018-01-10T00:50:51.624Z,5.20
2018-01-10T00:53:19.390Z,5.03
2018-01-10T00:55:47.067Z,4.10
2018-01-10T00:58:14.826Z,5.90
2018-01-10T01:00:42.503Z,4.03
2018-01-10T01:03:10.187Z,4.63
2018-01-10T01:05:37.954Z,4.93
2018-01-10T01:08:05.633Z,4.10
2018-01-10T01:10:33.352Z,4.50
2018-01-10T01:13:01.198Z,5.27
2018-01-10T01:15:28.939Z,4.60
2018-01-10T01:17:56.666Z,5.67
2018-01-10T01:20:24.365Z,6.40
2018-01-10T01:22:52.107Z,5.90
2018-01-10T01:25:19.818Z,4.80
2018-01-10T01:27:47.525Z,4.70
2018-01-10T01:30:15.228Z,4.13
2018-01-10T01:32:42.967Z,6.80
2018-01-10T01:35:10.677Z,6.00
2018-01-10T01:37:38.453Z,5.70
2018-01-10T01:40:06.153Z,8.70
2018-01-10T01:42:34.489Z,9.03
2018-01-10T01:45:02.163Z,7.77
2018-01-10T01:47:30.832Z,5.80
2018-01-10T01:49:58.544Z,5.90
2018-01-10T01:52:26.246Z,5.57
2018-01-10T01:54:53.963Z,5.10
2018-01-10T01:57:21.649Z,6.90
2018-01-10T01:59:49.401Z,7.60
2018-01-10T02:02:17.078Z,6.50
2018-01-10T02:04:44.810Z,6.87
2018-01-10T02:07:12.562Z,6.60
2018-01-10T02:09:40.241Z,8.93
2018-01-10T02:12:08.115Z,9.03
2018-01-10T02:14:35.966Z,12.30
2018-01-10T02:17:03.649Z,8.33
2018-01-10T02:19:31.432Z,7.00
2018-01-10T02:21:59.127Z,5.20
2018-01-10T02:24:26.903Z,4.17
2018-01-10T02:26:54.601Z,5.30
2018-01-10T02:29:23.249Z,8.77
2018-01-10T02:31:50.994Z,8.13
2018-01-10T02:34:18.690Z,9.40
2018-01-10T02:36:46.498Z,9.17
2018-01-10T02:39:14.203Z,8.77
2018-01-10T02:41:41.898Z,7.93
2018-01-10T02:44:09.636Z,6.97
2018-01-10T02:46:37.355Z,6.77
2018-01-10T02:49:05.022Z,6.30
2018-01-10T02:51:32.748Z,6.83
2018-01-10T02:54:00.436Z,6.90
2018-01-10T02:56:28.198Z,6.87
2018-01-10T02:58:55.909Z,5.80
2018-01-10T03:01:23.972Z,6.17
2018-01-10T03:03:51.672Z,5.70
2018-01-10T03:06:19.426Z,6.80
2018-01-10T03:08:47.145Z,6.50
2018-01-10T03:11:14.910Z,5.40
2018-01-10T03:13:42.608Z,7.00
2018-01-10T03:16:10.317Z,6.77
2018-01-10T03:18:38.038Z,6.33
2018-01-10T03:21:05.724Z,6.90
2018-01-10T03:23:33.436Z,8.40
2018-01-10T03:26:01.111Z,9.87
2018-01-10T03:28:28.911Z,8.10
2018-01-10T03:30:56.655Z,9.63
2018-01-10T03:33:24.450Z,7.83
2018-01-10T03:35:52.111Z,7.73
2018-01-10T03:38:19.828Z,9.37
2018-01-10T03:40:47.575Z,8.30
2018-01-10T03:43:15.296Z,8.27
2018-01-10T03:45:42.986Z,7.83
2018-01-10T03:48:10.699Z,6.60
2018-01-10T03:50:38.456Z,5.80
2018-01-10T03:53:06.144Z,6.90
2018-01-10T03:55:33.894Z,4.40
2018-01-10T03:58:01.570Z,6.00
2018-01-10T04:00:30.206Z,5.00
2018-01-10T04:02:57.924Z,5.57
2018-01-10T04:05:25.608Z,7.40
2018-01-10T04:07:53.374Z,8.10
2018-01-10T04:10:21.120Z,7.80
2018-01-10T04:12:48.855Z,7.20
2018-01-10T04:15:16.598Z,7.30
2018-01-10T04:17:44.342Z,8.47
2018-01-10T04:20:12.024Z,7.80
2018-01-10T04:22:39.758Z,8.37
2018-01-10T04:25:07.447Z,7.50
2018-01-10T04:27:35.162Z,8.37
2018-01-10T04:30:03.025Z,5.70
2018-01-10T04:32:30.720Z,5.03
2018-01-10T04:34:58.409Z,3.97
2018-01-10T04:37:26.135Z,3.67
2018-01-10T04:39:54.265Z,3.40
2018-01-10T04:42:22.056Z,3.60
2018-01-10T04:44:49.735Z,3.17
2018-01-10T04:47:17.465Z,3.80
2018-01-10T04:49:45.196Z,2.90
2018-01-10T04:52:12.939Z,3.83
2018-01-10T04:54:40.731Z,4.50
2018-01-10T04:57:08.453Z,5.43
2018-01-10T04:59:36.179Z,4.37
2018-01-10T05:02:03.912Z,10.67
2018-01-10T05:04:31.619Z,8.43
2018-01-10T05:06:59.409Z,7.37
2018-01-10T05:09:27.149Z,6.50
2018-01-10T05:11:54.870Z,8.07
2018-01-10T05:14:23.039Z,7.70
2018-01-10T05:16:50.769Z,5.13
2018-01-10T05:19:18.498Z,7.97
2018-01-10T05:21:46.266Z,7.20
2018-01-10T05:24:13.976Z,5.60
2018-01-10T05:26:41.801Z,6.57
2018-01-10T05:29:09.824Z,4.83
2018-01-10T05:31:37.638Z,6.30
2018-01-10T05:34:05.367Z,21.13
2018-01-10T05:36:33.305Z,9.90
2018-01-10T05:39:01.080Z,8.13
2018-01-10T05:41:29.067Z,5.93
2018-01-10T05:43:56.863Z,5.50
2018-01-10T05:46:24.556Z,5.63
2018-01-10T05:48:52.304Z,5.53
2018-01-10T05:51:20.039Z,8.97
2018-01-10T05:53:47.788Z,6.33
2018-01-10T05:56:15.519Z,5.80
2018-01-10T05:58:43.220Z,5.40
2018-01-10T06:01:10.976Z,6.07
2018-01-10T06:03:38.753Z,6.63
2018-01-10T06:06:06.548Z,5.87
2018-01-10T06:08:34.267Z,6.67
2018-01-10T06:11:03.215Z,8.00
2018-01-10T06:13:30.990Z,8.47
2018-01-10T06:15:59.224Z,8.77
2018-01-10T06:18:26.911Z,8.00
2018-01-10T06:20:54.678Z,7.10
2018-01-10T06:23:22.381Z,6.83
2018-01-10T06:25:50.112Z,6.03
2018-01-10T06:28:17.801Z,7.00
2018-01-10T06:30:45.520Z,6.37
2018-01-10T06:33:13.264Z,5.90
2018-01-10T06:35:40.998Z,7.20
2018-01-10T06:38:08.763Z,7.50
2018-01-10T06:40:36.427Z,5.03
2018-01-10T06:43:04.190Z,6.43
2018-01-10T06:45:31.892Z,8.60
2018-01-10T06:47:59.584Z,9.57
2018-01-10T06:50:27.379Z,12.00
2018-01-10T06:52:55.200Z,9.97
2018-01-10T06:55:22.868Z,11.50
2018-01-10T06:57:51.688Z,11.90
2018-01-10T07:00:19.596Z,9.93
2018-01-10T07:02:47.340Z,11.10
2018-01-10T07:05:15.186Z,9.80
2018-01-10T07:07:42.887Z,9.83
2018-01-10T07:10:10.655Z,10.70
2018-01-10T07:12:38.429Z,12.10
2018-01-10T07:15:06.108Z,13.80
2018-01-10T07:17:34.078Z,9.47
2018-01-10T07:20:01.833Z,10.73
2018-01-10T07:22:29.622Z,10.27
2018-01-10T07:24:57.345Z,9.90
2018-01-10T07:27:25.049Z,9.10
2018-01-10T07:29:52.785Z,8.97
2018-01-10T07:32:20.570Z,7.47
2018-01-10T07:34:48.367Z,6.07
2018-01-10T07:37:16.174Z,7.13
2018-01-10T07:39:44.062Z,7.77
2018-01-10T07:42:11.791Z,7.30
2018-01-10T07:44:39.503Z,7.50
2018-01-10T07:47:07.264Z,8.37
2018-01-10T07:49:34.981Z,8.50
2018-01-10T07:52:02.698Z,9.60
2018-01-10T07:54:30.465Z,8.33
2018-01-10T07:56:58.209Z,9.50
2018-01-10T07:59:25.883Z,4.80
2018-01-10T08:01:53.612Z,4.40
2018-01-10T08:04:21.289Z,4.73
2018-01-10T08:06:49.166Z,5.73
2018-01-10T08:09:16.909Z,9.00
2018-01-10T08:11:44.603Z,9.07
2018-01-10T08:14:12.349Z,9.23
2018-01-10T08:16:40.141Z,9.00
2018-01-10T08:19:08.046Z,8.57
2018-01-10T08:21:35.828Z,9.30
2018-01-10T08:24:03.520Z,11.63
2018-01-10T08:26:31.286Z,13.23
2018-01-10T08:28:59.004Z,12.27
2018-01-10T08:31:26.814Z,10.63
2018-01-10T08:33:54.577Z,10.90
2018-01-10T08:36:22.261Z,10.10
2018-01-10T08:38:49.949Z,10.10
2018-01-10T08:41:17.705Z,10.50
2018-01-10T08:43:45.388Z,8.90
2018-01-10T08:46:13.119Z,9.70
2018-01-10T08:48:40.942Z,15.10
2018-01-10T08:51:09.241Z,14.50
2018-01-10T08:53:37.260Z,12.83
2018-01-10T08:56:05.059Z,11.40
2018-01-10T08:58:32.819Z,13.00
2018-01-10T09:01:00.648Z,12.40
2018-01-10T09:03:28.795Z,13.67
2018-01-10T09:05:56.696Z,12.70
2018-01-10T09:08:24.499Z,12.27
2018-01-10T09:10:52.358Z,13.43
2018-01-10T09:13:20.113Z,10.73
2018-01-10T09:15:47.826Z,11.17
2018-01-10T09:18:15.590Z,11.27
2018-01-10T09:20:43.275Z,9.13
2018-01-10T09:23:11.105Z,7.23
2018-01-10T09:25:38.886Z,9.60
2018-01-10T09:28:06.607Z,9.30
2018-01-10T09:30:34.505Z,9.70
2018-01-10T09:33:02.267Z,8.90
2018-01-10T09:35:30.055Z,9.63
2018-01-10T09:37:57.798Z,12.87
2018-01-10T09:40:25.612Z,17.37
2018-01-10T09:42:54.568Z,16.07
2018-01-10T09:45:22.274Z,11.27
2018-01-10T09:47:50.081Z,9.03
2018-01-10T09:50:17.858Z,9.60
2018-01-10T09:52:45.578Z,10.57
2018-01-10T09:55:13.367Z,8.50
2018-01-10T09:57:41.108Z,8.30
2018-01-10T10:00:08.896Z,8.43
2018-01-10T10:02:36.635Z,9.17
2018-01-10T10:05:04.399Z,9.63
2018-01-10T10:07:32.156Z,9.53
2018-01-10T10:09:59.936Z,9.70
2018-01-10T10:12:27.774Z,8.87
2018-01-10T10:14:55.525Z,9.70
2018-01-10T10:17:23.365Z,9.00
2018-01-10T10:19:51.102Z,7.70
2018-01-10T10:22:18.913Z,10.10
2018-01-10T10:24:46.692Z,8.10
2018-01-10T10:27:14.420Z,8.23
2018-01-10T10:29:42.216Z,8.60
2018-01-10T10:32:09.949Z,8.17
2018-01-10T10:34:37.731Z,7.87
2018-01-10T10:37:05.502Z,9.63
2018-01-10T10:39:33.198Z,9.67
2018-01-10T10:42:01.649Z,10.80
2018-01-10T10:44:29.475Z,12.83
2018-01-10T10:46:57.251Z,11.97
2018-01-10T10:49:25.058Z,13.20
2018-01-10T10:51:52.806Z,12.10
2018-01-10T10:54:20.534Z,12.03
2018-01-10T10:56:48.244Z,12.30
2018-01-10T10:59:16.012Z,10.23
2018-01-10T11:01:43.910Z,13.60
2018-01-10T11:04:11.622Z,10.60
2018-01-10T11:06:39.308Z,10.70
2018-01-10T11:09:07.093Z,9.63
2018-01-10T11:11:34.837Z,10.70
2018-01-10T11:14:02.649Z,11.23
2018-01-10T11:16:31.309Z,12.03
2018-01-10T11:18:59.086Z,11.80
2018-01-10T11:21:26.838Z,13.20
2018-01-10T11:23:54.654Z,13.40
2018-01-10T11:26:22.401Z,11.67
2018-01-10T11:28:50.179Z,15.50
2018-01-10T11:31:17.951Z,14.50
2018-01-10T11:33:45.640Z,14.87
2018-01-10T11:36:13.366Z,16.13
2018-01-10T11:38:41.224Z,14.70
2018-01-10T11:41:08.932Z,17.77
2018-01-10T11:43:36.757Z,18.67
2018-01-10T11:46:04.628Z,19.27
2018-01-10T11:48:32.376Z,19.10
2018-01-10T11:51:00.285Z,19.03
2018-01-10T11:55:55.698Z,17.73
2018-01-10T11:58:23.400Z,15.60
2018-01-10T12:00:51.174Z,19.87
2018-01-10T12:03:18.851Z,24.97
2018-01-10T12:05:46.661Z,19.43
2018-01-10T12:08:14.417Z,16.37
2018-01-10T12:10:42.198Z,12.40
2018-01-10T12:13:10.136Z,10.50
2018-01-10T12:15:37.911Z,9.50
2018-01-10T12:18:06.107Z,9.67
2018-01-10T12:20:33.959Z,8.90
2018-01-10T12:23:01.738Z,8.70
2018-01-10T12:25:29.454Z,9.40
2018-01-10T12:27:57.246Z,9.40
2018-01-10T12:30:25.083Z,10.80
2018-01-10T12:32:52.809Z,12.40
2018-01-10T12:35:20.563Z,13.87
2018-01-10T12:37:48.289Z,13.50
2018-01-10T12:40:15.988Z,10.07
2018-01-10T12:42:43.693Z,12.70
2018-01-10T12:45:11.499Z,12.80
2018-01-10T12:47:39.291Z,12.80
2018-01-10T12:50:07.232Z,13.77
2018-01-10T12:52:35.736Z,9.60
2018-01-10T12:55:03.463Z,9.27
2018-01-10T12:57:31.248Z,8.87
2018-01-10T12:59:59.031Z,16.03
2018-01-10T13:02:26.748Z,8.73
2018-01-10T13:04:54.556Z,6.13
2018-01-10T13:07:22.286Z,6.10
2018-01-10T13:09:50.096Z,5.70
2018-01-10T13:12:17.868Z,6.40
2018-01-10T13:14:45.606Z,5.27
2018-01-10T13:17:13.604Z,5.73
2018-01-10T13:19:42.603Z,6.40
2018-01-10T13:22:11.276Z,5.00
2018-01-10T13:24:40.115Z,5.40
2018-01-10T13:27:07.926Z,4.17
2018-01-10T13:29:35.615Z,4.60
2018-01-10T13:32:03.381Z,4.80
2018-01-10T13:34:31.093Z,4.47
2018-01-10T13:37:00.615Z,4.60
2018-01-10T13:39:28.401Z,4.00
2018-01-10T13:41:56.579Z,4.20
2018-01-10T13:44:24.425Z,4.57
2018-01-10T13:46:52.461Z,7.00
2018-01-10T13:49:21.019Z,6.30
2018-01-10T13:51:48.817Z,5.80
2018-01-10T13:54:16.933Z,5.30
2018-01-10T13:56:44.697Z,3.90
2018-01-10T13:59:12.414Z,2.90
2018-01-10T14:01:40.181Z,2.77
2018-01-10T14:04:07.959Z,2.50
2018-01-10T14:06:35.734Z,2.23
2018-01-10T14:09:04.516Z,1.83
2018-01-10T14:11:33.276Z,1.73
2018-01-10T14:14:01.070Z,1.80
2018-01-10T14:16:30.786Z,2.53
2018-01-10T14:18:58.557Z,1.80
2018-01-10T14:21:26.419Z,2.83
2018-01-10T14:23:54.131Z,2.43
2018-01-10T14:26:22.394Z,2.90
2018-01-10T14:28:50.176Z,3.17
2018-01-10T14:31:17.899Z,3.83
2018-01-10T14:33:45.844Z,2.87
2018-01-10T14:36:13.636Z,3.20
2018-01-10T14:38:42.722Z,3.60
2018-01-10T14:41:10.522Z,2.63
2018-01-10T14:43:38.398Z,2.20
2018-01-10T14:46:06.154Z,3.00
2018-01-10T14:48:34.022Z,3.17
2018-01-10T14:51:01.943Z,4.40
2018-01-10T14:53:31.307Z,3.93
2018-01-10T14:55:59.208Z,3.10
2018-01-10T14:58:26.904Z,3.93
2018-01-10T15:00:54.628Z,3.83
2018-01-10T15:03:22.387Z,4.13
2018-01-10T15:05:50.188Z,4.23
2018-01-10T15:08:17.953Z,3.03
2018-01-10T15:10:45.810Z,5.40
2018-01-10T15:13:13.668Z,3.40
2018-01-10T15:15:41.418Z,2.80
2018-01-10T15:18:09.924Z,3.07
2018-01-10T15:20:37.695Z,3.30
2018-01-10T15:23:05.724Z,3.60
2018-01-10T15:25:33.416Z,2.80
2018-01-10T15:28:02.554Z,4.03
2018-01-10T15:30:30.332Z,4.13
2018-01-10T15:32:59.996Z,4.23
2018-01-10T15:35:27.980Z,2.73
2018-01-10T15:37:55.672Z,4.10
2018-01-10T15:40:23.418Z,3.30
2018-01-10T15:42:51.181Z,3.27
2018-01-10T15:45:19.608Z,4.47
2018-01-10T15:47:47.407Z,2.30
2018-01-10T15:50:15.095Z,3.50
2018-01-10T15:52:42.887Z,4.30
2018-01-10T15:55:10.728Z,4.10
2018-01-10T15:57:38.560Z,4.00
2018-01-10T16:00:07.284Z,4.10
2018-01-10T16:02:35.001Z,4.47
2018-01-10T16:05:02.778Z,4.07
2018-01-10T16:07:31.753Z,4.47
2018-01-10T16:09:59.728Z,4.80
2018-01-10T16:12:27.472Z,5.00
2018-01-10T16:14:55.192Z,4.70
2018-01-10T16:17:22.982Z,4.50
2018-01-10T16:19:51.222Z,4.00
2018-01-10T16:22:18.999Z,3.00
2018-01-10T16:24:46.822Z,2.70
2018-01-10T16:27:14.536Z,4.13
2018-01-10T16:29:42.362Z,2.90
2018-01-10T16:32:11.054Z,3.30
2018-01-10T16:34:38.844Z,3.73
2018-01-10T16:37:06.545Z,3.73
2018-01-10T16:39:34.746Z,3.23
2018-01-10T16:42:02.456Z,3.60
2018-01-10T16:44:30.197Z,3.30
2018-01-10T16:46:58.771Z,5.70
2018-01-10T16:49:26.526Z,3.87
2018-01-10T16:51:54.246Z,2.87
2018-01-10T16:54:22.107Z,2.73
2018-01-10T16:56:49.843Z,2.60
2018-01-10T16:59:17.586Z,2.50
2018-01-10T17:01:45.405Z,2.50
2018-01-10T17:04:13.627Z,1.60
2018-01-10T17:06:41.408Z,2.23
2018-01-10T17:09:09.359Z,2.23
2018-01-10T17:11:37.055Z,2.13
2018-01-10T17:14:04.809Z,2.47
2018-01-10T17:16:33.462Z,3.00
2018-01-10T17:19:01.318Z,3.30
2018-01-10T17:21:29.074Z,1.90
2018-01-10T17:23:56.812Z,3.63
2018-01-10T17:26:24.641Z,4.60
2018-01-10T17:28:52.542Z,3.80
2018-01-10T17:31:20.377Z,3.40
2018-01-10T17:33:48.376Z,4.60
2018-01-10T17:36:16.208Z,5.23
2018-01-10T17:38:43.994Z,5.30
2018-01-10T17:41:11.780Z,6.60
2018-01-10T17:43:39.535Z,4.83
2018-01-10T17:46:07.320Z,3.93
2018-01-10T17:48:35.040Z,3.30
2018-01-10T17:51:03.961Z,3.63
2018-01-10T17:53:31.814Z,4.10
2018-01-10T17:55:59.557Z,4.20
2018-01-10T17:58:27.450Z,4.50
2018-01-10T18:00:55.620Z,4.90
2018-01-10T18:03:23.442Z,4.33
2018-01-10T18:05:51.294Z,4.23
2018-01-10T18:08:19.069Z,5.70
2018-01-10T18:10:46.803Z,4.70
2018-01-10T18:13:14.584Z,5.50
2018-01-10T18:15:42.778Z,7.40
2018-01-10T18:18:10.555Z,5.97
2018-01-10T18:20:38.392Z,5.03
2018-01-10T18:23:06.120Z,3.93
2018-01-10T18:25:33.881Z,3.73
2018-01-10T18:28:01.679Z,3.80
2018-01-10T18:30:29.487Z,3.63
2018-01-10T18:32:57.444Z,3.60
2018-01-10T18:35:25.218Z,4.70
2018-01-10T18:37:54.319Z,5.40
2018-01-10T18:40:22.066Z,5.10
2018-01-10T18:42:49.870Z,7.10
2018-01-10T18:45:17.664Z,6.20
2018-01-10T18:47:46.359Z,6.47
2018-01-10T18:50:14.084Z,9.53
2018-01-10T18:52:43.972Z,8.00
2018-01-10T18:55:11.960Z,6.30
2018-01-10T18:57:39.908Z,4.20
2018-01-10T19:00:08.099Z,4.27
2018-01-10T19:02:36.046Z,5.97
2018-01-10T19:05:04.360Z,4.43
2018-01-10T19:07:32.609Z,4.40
2018-01-10T19:10:00.792Z,6.47
2018-01-10T19:12:28.716Z,7.90
2018-01-10T19:14:56.570Z,12.10
2018-01-10T19:17:24.346Z,13.60
2018-01-10T19:19:52.138Z,13.33
2018-01-10T19:22:20.906Z,15.13
2018-01-10T19:24:48.884Z,12.80
2018-01-10T19:27:16.690Z,12.23
2018-01-10T19:29:44.649Z,10.67
2018-01-10T19:32:12.486Z,13.90
2018-01-10T19:34:40.479Z,15.93
2018-01-10T19:37:09.530Z,12.13
2018-01-10T19:39:37.466Z,9.03
2018-01-10T19:42:06.235Z,10.80
2018-01-10T19:44:34.696Z,10.00
2018-01-10T19:47:02.538Z,13.10
2018-01-10T19:49:31.447Z,15.30
2018-01-10T19:51:59.313Z,11.73
2018-01-10T19:54:27.116Z,11.07
2018-01-10T19:56:54.923Z,10.37
2018-01-10T19:59:23.150Z,10.00
2018-01-10T20:01:51.058Z,8.40
2018-01-10T20:04:18.895Z,8.13
2018-01-10T20:06:46.831Z,7.80
2018-01-10T20:09:14.754Z,10.87
2018-01-10T20:11:42.513Z,9.70
2018-01-10T20:14:10.406Z,9.40
2018-01-10T20:16:38.215Z,10.60
2018-01-10T20:19:05.971Z,10.80
2018-01-10T20:21:33.852Z,10.13
2018-01-10T20:24:01.638Z,10.13
2018-01-10T20:26:29.492Z,12.40
2018-01-10T20:28:57.383Z,13.20
2018-01-10T20:31:26.352Z,14.30
2018-01-10T20:33:54.191Z,14.27
2018-01-10T20:36:21.918Z,15.43
2018-01-10T20:38:50.926Z,13.97
2018-01-10T20:41:18.675Z,14.87
2018-01-10T20:43:46.624Z,11.50
2018-01-10T20:46:14.487Z,13.23
2018-01-10T20:48:42.336Z,12.83
2018-01-10T20:51:10.109Z,12.70
2018-01-10T20:53:37.839Z,12.73
2018-01-10T20:56:05.645Z,13.87
2018-01-10T20:58:34.015Z,12.73
2018-01-10T21:01:01.735Z,14.00
2018-01-10T21:03:30.476Z,13.40
2018-01-10T21:05:58.365Z,13.30
2018-01-10T21:08:26.826Z,11.37
2018-01-10T21:10:54.607Z,9.50
2018-01-10T21:13:22.609Z,11.10
2018-01-10T21:15:50.320Z,10.97
2018-01-10T21:18:18.157Z,12.20
2018-01-10T21:20:45.926Z,13.37
2018-01-10T21:23:14.928Z,13.97
2018-01-10T21:25:42.683Z,13.67
2018-01-10T21:28:10.451Z,12.33
2018-01-10T21:30:38.325Z,11.37
2018-01-10T21:33:06.062Z,11.30
2018-01-10T21:35:33.852Z,11.10
2018-01-10T21:38:01.592Z,11.80
2018-01-10T21:40:29.354Z,10.67
2018-01-10T21:42:58.054Z,12.50
2018-01-10T21:45:26.046Z,13.10
2018-01-10T21:47:53.817Z,12.17
2018-01-10T21:50:21.515Z,12.50
2018-01-10T21:52:49.267Z,11.70
2018-01-10T21:55:16.984Z,11.60
2018-01-10T21:57:44.759Z,13.50
2018-01-10T22:00:12.620Z,11.30
2018-01-10T22:02:40.356Z,10.20
2018-01-10T22:05:08.127Z,9.10
2018-01-10T22:07:35.829Z,9.17
2018-01-10T22:10:03.524Z,8.33
2018-01-10T22:12:31.303Z,10.33
2018-01-10T22:14:59.098Z,10.00
2018-01-10T22:17:26.915Z,12.07
2018-01-10T22:19:55.800Z,13.87
2018-01-10T22:22:23.487Z,14.13
2018-01-10T22:24:51.237Z,12.77
2018-01-10T22:27:18.986Z,16.77
2018-01-10T22:29:46.739Z,18.43
2018-01-10T22:32:14.455Z,20.53
2018-01-10T22:34:42.236Z,16.07
2018-01-10T22:37:09.922Z,13.93
2018-01-10T22:39:37.766Z,11.70
2018-01-10T22:42:05.465Z,10.27
2018-01-10T22:44:33.537Z,14.43
2018-01-10T22:47:01.304Z,13.17
2018-01-10T22:49:29.231Z,15.57
2018-01-10T22:51:56.955Z,12.43
2018-01-10T22:54:24.722Z,13.40
2018-01-10T22:56:52.743Z,9.53
2018-01-10T22:59:21.154Z,13.30
2018-01-10T23:01:49.008Z,12.50
2018-01-10T23:04:16.792Z,11.80
2018-01-10T23:06:44.502Z,12.20
2018-01-10T23:09:12.189Z,13.27
2018-01-10T23:11:39.936Z,11.90
2018-01-10T23:14:07.677Z,12.60
2018-01-10T23:16:35.436Z,11.63
2018-01-10T23:19:03.196Z,12.10
2018-01-10T23:21:30.899Z,12.93
2018-01-10T23:23:58.562Z,10.90
2018-01-10T23:26:26.322Z,10.30
2018-01-10T23:28:54.008Z,10.40
2018-01-10T23:31:21.727Z,10.13
2018-01-10T23:33:49.486Z,12.00
2018-01-10T23:36:17.405Z,10.20
2018-01-10T23:38:45.103Z,9.77
2018-01-10T23:41:12.783Z,8.70
2018-01-10T23:43:40.517Z,8.53
2018-01-10T23:46:08.190Z,8.37
2018-01-10T23:48:35.940Z,9.23
2018-01-10T23:51:03.628Z,10.40
2018-01-10T23:53:31.359Z,10.33
2018-01-10T23:55:59.104Z,10.93
2018-01-10T23:58:26.854Z,8.77
